This is the latest recevied weather packets stored in our database for station/object PY1LEO-13. If no packets are shown the sender has not sent any weather packets the latest 10 day(s).
| Time | Temp. | Humidity | Pressure | Rain* | Wind** | Luminosity | Snow |
|---|---|---|---|---|---|---|---|
| 1777985465 | 26.11° C | 58% | 1021.8 hPa | - | - | - | - |
| 1777985165 | 27.22° C | 55% | 1021.8 hPa | - | - | - | - |
| 1777984865 | 26.67° C | 58% | 1021.9 hPa | - | - | - | - |
| 1777984565 | 26.11° C | 58% | 1021.9 hPa | - | - | - | - |
| 1777984267 | 26.11° C | 60% | 1021.9 hPa | - | - | - | - |
| 1777983967 | 26.11° C | 58% | 1021.9 hPa | - | - | - | - |
| 1777983665 | 26.11° C | 58% | 1021.9 hPa | - | - | - | - |
| 1777983365 | 26.11° C | 57% | 1021.9 hPa | - | - | - | - |
| 1777983065 | 26.67° C | 57% | 1021.8 hPa | - | - | - | - |
| 1777982765 | 27.22° C | 55% | 1021.7 hPa | - | - | - | - |
| 1777982465 | 26.11° C | 58% | 1021.5 hPa | - | - | - | - |
| 1777982168 | 26.11° C | 58% | 1021.5 hPa | - | - | - | - |
| 1777981865 | 26.11° C | 58% | 1021.5 hPa | - | - | - | - |
| 1777981565 | 26.11° C | 58% | 1021.4 hPa | - | - | - | - |
| 1777981265 | 25.56° C | 59% | 1021.4 hPa | - | - | - | - |
| 1777980965 | 26.11° C | 59% | 1021.3 hPa | - | - | - | - |
| 1777980665 | 25.56° C | 60% | 1021.3 hPa | - | - | - | - |
| 1777980365 | 25.56° C | 60% | 1021.2 hPa | - | - | - | - |
| 1777980065 | 25.56° C | 59% | 1021.2 hPa | - | - | - | - |
| 1777979765 | 25.56° C | 60% | 1021.2 hPa | - | - | - | - |
| 1777979465 | 25.56° C | 60% | 1021.1 hPa | - | - | - | - |
| 1777979165 | 25.56° C | 60% | 1021.1 hPa | - | - | - | - |
| 1777978865 | 25.56° C | 59% | 1021 hPa | - | - | - | - |
| 1777978565 | 25.56° C | 59% | 1021 hPa | - | - | - | - |
| 1777978266 | 25° C | 60% | 1020.9 hPa | - | - | - | - |
* Rain since midnight (hover to see other rain measurements)
** Current wind speed in m/s (hover to see current wind gust speed)